createdAt,value
2018-11-23T00:00:45.066Z,13.10
2018-11-23T00:03:13.472Z,11.30
2018-11-23T00:05:41.820Z,13.50
2018-11-23T00:08:10.526Z,13.43
2018-11-23T00:10:38.894Z,13.03
2018-11-23T00:13:13.616Z,14.63
2018-11-23T00:15:42.058Z,13.85
2018-11-23T00:18:10.495Z,13.80
2018-11-23T00:20:38.987Z,13.65
2018-11-23T00:23:07.347Z,12.88
2018-11-23T00:25:35.750Z,13.65
2018-11-23T00:28:04.182Z,14.00
2018-11-23T00:30:32.583Z,11.75
2018-11-23T00:33:00.984Z,13.43
2018-11-23T00:35:30.553Z,11.40
2018-11-23T00:37:58.973Z,12.82
2018-11-23T00:40:31.593Z,12.55
2018-11-23T00:43:00.649Z,11.60
2018-11-23T00:45:29.022Z,16.52
2018-11-23T00:47:58.167Z,12.00
2018-11-23T00:50:27.187Z,15.93
2018-11-23T00:52:56.646Z,12.33
2018-11-23T00:55:25.943Z,12.45
2018-11-23T00:57:54.471Z,14.15
2018-11-23T01:00:27.044Z,12.00
2018-11-23T01:02:56.090Z,10.78
2018-11-23T01:05:24.632Z,11.85
2018-11-23T01:07:52.974Z,12.15
2018-11-23T01:10:22.449Z,13.72
2018-11-23T01:12:51.794Z,10.10
2018-11-23T01:15:20.141Z,12.47
2018-11-23T01:17:48.587Z,11.83
2018-11-23T01:20:21.589Z,14.25
2018-11-23T01:22:50.431Z,14.35
2018-11-23T01:25:20.076Z,12.43
2018-11-23T01:27:49.599Z,12.80
2018-11-23T01:30:23.295Z,13.45
2018-11-23T01:32:51.750Z,14.05
2018-11-23T01:35:20.124Z,17.98
2018-11-23T01:37:48.552Z,15.50
2018-11-23T01:40:18.270Z,15.03
2018-11-23T01:42:47.014Z,16.12
2018-11-23T01:45:18.235Z,15.05
2018-11-23T01:47:46.644Z,13.98
2018-11-23T01:50:17.149Z,14.20
2018-11-23T01:52:46.626Z,13.32
2018-11-23T01:55:15.707Z,13.00
2018-11-23T01:57:44.554Z,13.03
2018-11-23T02:00:15.390Z,14.38
2018-11-23T02:02:44.285Z,14.33
2018-11-23T02:05:12.711Z,14.43
2018-11-23T02:07:44.253Z,14.28
2018-11-23T02:10:14.063Z,12.75
2018-11-23T02:12:42.494Z,13.45
2018-11-23T02:15:13.766Z,13.90
2018-11-23T02:17:42.164Z,14.78
2018-11-23T02:20:11.836Z,11.40
2018-11-23T02:22:40.213Z,12.28
2018-11-23T02:25:08.804Z,14.30
2018-11-23T02:27:37.275Z,14.03
2018-11-23T02:30:14.557Z,13.98
2018-11-23T02:32:43.261Z,16.07
2018-11-23T02:35:11.866Z,16.23
2018-11-23T02:37:40.381Z,14.25
2018-11-23T02:40:09.823Z,14.65
2018-11-23T02:42:38.638Z,14.07
2018-11-23T02:45:09.217Z,14.25
2018-11-23T02:47:37.590Z,15.20
2018-11-23T02:50:06.485Z,14.13
2018-11-23T02:52:35.093Z,13.70
2018-11-23T02:55:03.541Z,15.13
2018-11-23T02:57:31.962Z,13.28
2018-11-23T03:00:01.784Z,13.85
2018-11-23T03:02:30.275Z,13.35
2018-11-23T03:04:58.627Z,13.78
2018-11-23T03:07:27.001Z,13.50
2018-11-23T03:09:55.361Z,14.25
2018-11-23T03:12:23.796Z,18.37
2018-11-23T03:14:52.135Z,12.70
2018-11-23T03:17:20.525Z,15.68
2018-11-23T03:19:48.873Z,15.13
2018-11-23T03:22:17.257Z,13.70
2018-11-23T03:24:45.605Z,14.53
2018-11-23T03:27:14.034Z,13.48
2018-11-23T03:29:42.518Z,14.78
2018-11-23T03:32:10.902Z,13.20
2018-11-23T03:34:39.297Z,17.05
2018-11-23T03:37:07.744Z,20.70
2018-11-23T03:39:36.068Z,15.88
2018-11-23T03:42:04.648Z,14.63
2018-11-23T03:44:32.986Z,13.40
2018-11-23T03:47:01.320Z,15.20
2018-11-23T03:49:29.774Z,16.00
2018-11-23T03:51:58.071Z,15.75
2018-11-23T03:54:26.472Z,15.58
2018-11-23T03:56:54.880Z,15.63
2018-11-23T03:59:23.253Z,17.35
2018-11-23T04:01:51.597Z,14.40
2018-11-23T04:04:20.114Z,13.78
2018-11-23T04:06:48.493Z,14.47
2018-11-23T04:09:16.824Z,20.77
2018-11-23T04:11:45.230Z,14.95
2018-11-23T04:14:13.569Z,18.67
2018-11-23T04:16:42.005Z,13.98
2018-11-23T04:19:10.487Z,15.40
2018-11-23T04:21:38.860Z,14.83
2018-11-23T04:24:07.244Z,16.27
2018-11-23T04:26:37.570Z,14.53
2018-11-23T04:29:06.262Z,16.95
2018-11-23T04:31:34.732Z,15.78
2018-11-23T04:34:03.218Z,16.40
2018-11-23T04:36:31.593Z,14.87
2018-11-23T04:38:59.957Z,13.70
2018-11-23T04:41:28.388Z,14.83
2018-11-23T04:43:56.744Z,15.18
2018-11-23T04:46:25.153Z,15.70
2018-11-23T04:48:53.596Z,17.50
2018-11-23T04:51:22.072Z,16.87
2018-11-23T04:53:50.527Z,16.45
2018-11-23T04:56:19.039Z,19.48
2018-11-23T04:58:47.469Z,16.55
2018-11-23T05:01:15.988Z,20.05
2018-11-23T05:03:44.472Z,20.50
2018-11-23T05:06:12.853Z,17.37
2018-11-23T05:08:41.200Z,15.50
2018-11-23T05:11:09.608Z,19.37
2018-11-23T05:13:38.036Z,18.27
2018-11-23T05:16:06.464Z,19.05
2018-11-23T05:18:34.844Z,18.73
2018-11-23T05:21:03.183Z,16.52
2018-11-23T05:23:31.789Z,19.37
2018-11-23T05:26:00.312Z,17.10
2018-11-23T05:28:31.627Z,14.87
2018-11-23T05:31:00.035Z,19.23
2018-11-23T05:33:28.480Z,19.70
2018-11-23T05:35:57.091Z,18.67
2018-11-23T05:38:25.667Z,18.12
2018-11-23T05:40:54.144Z,17.62
2018-11-23T05:43:22.787Z,18.87
2018-11-23T05:45:51.207Z,17.98
2018-11-23T05:48:22.949Z,18.98
2018-11-23T05:50:48.316Z,16.55
2018-11-23T05:53:17.598Z,17.50
2018-11-23T05:55:46.071Z,17.90
2018-11-23T05:58:14.556Z,16.55
2018-11-23T06:00:42.959Z,20.02
2018-11-23T06:03:11.405Z,15.38
2018-11-23T06:05:39.869Z,18.48
2018-11-23T06:08:08.296Z,18.32
2018-11-23T06:10:36.728Z,15.43
2018-11-23T06:13:05.130Z,19.10
2018-11-23T06:15:33.569Z,15.90
2018-11-23T06:18:01.980Z,16.95
2018-11-23T06:20:30.571Z,19.70
2018-11-23T06:22:58.979Z,16.75
2018-11-23T06:25:35.716Z,17.60
2018-11-23T06:28:04.297Z,15.88
2018-11-23T06:30:32.816Z,18.45
2018-11-23T06:33:10.484Z,16.80
2018-11-23T06:35:38.934Z,14.73
2018-11-23T06:38:07.330Z,15.03
2018-11-23T06:40:35.726Z,14.90
2018-11-23T06:43:04.216Z,15.38
2018-11-23T06:45:36.086Z,19.67
2018-11-23T06:48:04.823Z,19.05
2018-11-23T06:50:33.320Z,16.48
2018-11-23T06:53:01.771Z,22.52
2018-11-23T06:55:30.135Z,19.85
2018-11-23T06:57:58.503Z,17.73
2018-11-23T07:00:26.885Z,20.97
2018-11-23T07:02:59.078Z,15.43
2018-11-23T07:05:23.789Z,20.48
2018-11-23T07:07:52.388Z,18.10
2018-11-23T07:10:20.858Z,19.15
2018-11-23T07:12:49.201Z,18.37
2018-11-23T07:15:17.549Z,17.77
2018-11-23T07:17:45.984Z,17.70
2018-11-23T07:20:15.030Z,18.45
2018-11-23T07:22:43.924Z,18.87
2018-11-23T07:25:13.482Z,20.37
2018-11-23T07:27:45.384Z,19.32
2018-11-23T07:30:20.150Z,23.50
2018-11-23T07:32:49.377Z,19.95
2018-11-23T07:35:21.003Z,19.12
2018-11-23T07:37:50.355Z,23.80
2018-11-23T07:40:31.901Z,19.45
2018-11-23T07:43:05.610Z,21.82
2018-11-23T07:45:34.021Z,22.90
2018-11-23T07:48:02.522Z,25.60
2018-11-23T07:50:31.042Z,18.23
2018-11-23T07:53:08.062Z,18.82
2018-11-23T07:55:36.886Z,15.75
2018-11-23T07:58:06.643Z,23.95
2018-11-23T08:00:35.123Z,22.22
2018-11-23T08:03:03.698Z,15.05
2018-11-23T08:05:32.186Z,20.10
2018-11-23T08:08:00.612Z,20.75
2018-11-23T08:10:28.272Z,18.32
2018-11-23T08:12:56.795Z,22.07
2018-11-23T08:15:26.613Z,23.95
2018-11-23T08:17:55.253Z,17.40
2018-11-23T08:20:24.708Z,20.85
2018-11-23T08:22:54.784Z,17.40
2018-11-23T08:25:24.192Z,23.12
2018-11-23T08:27:54.027Z,15.58
2018-11-23T08:30:23.797Z,16.17
2018-11-23T08:32:52.431Z,14.85
2018-11-23T08:35:20.884Z,18.92
2018-11-23T08:37:49.395Z,16.02
2018-11-23T08:40:19.920Z,18.77
2018-11-23T08:42:49.230Z,17.45
2018-11-23T08:45:19.372Z,15.70
2018-11-23T08:47:47.804Z,17.10
2018-11-23T08:50:18.713Z,20.00
2018-11-23T08:52:47.357Z,16.77
2018-11-23T08:55:16.526Z,18.85
2018-11-23T08:57:44.915Z,17.25
2018-11-23T09:00:22.273Z,19.77
2018-11-23T09:02:52.186Z,19.85
2018-11-23T09:05:20.836Z,15.10
2018-11-23T09:07:50.612Z,16.20
2018-11-23T09:10:23.816Z,15.38
2018-11-23T09:12:57.015Z,15.93
2018-11-23T09:15:25.481Z,16.30
2018-11-23T09:17:53.902Z,15.50
2018-11-23T09:20:22.453Z,17.82
2018-11-23T09:22:50.975Z,19.07
2018-11-23T09:25:20.617Z,15.23
2018-11-23T09:27:49.052Z,18.17
2018-11-23T09:30:19.295Z,14.75
2018-11-23T09:32:48.435Z,17.35
2018-11-23T09:35:16.815Z,17.35
2018-11-23T09:37:45.654Z,17.07
2018-11-23T09:40:15.733Z,13.08
2018-11-23T09:42:44.298Z,16.97
2018-11-23T09:45:15.255Z,18.07
2018-11-23T09:47:45.313Z,15.90
2018-11-23T09:50:15.157Z,13.60
2018-11-23T09:52:44.116Z,18.15
2018-11-23T09:55:12.495Z,17.00
2018-11-23T09:57:41.347Z,16.77
2018-11-23T10:00:18.193Z,13.88
2018-11-23T10:02:47.440Z,15.30
2018-11-23T10:05:16.498Z,14.25
2018-11-23T10:07:46.312Z,17.48
2018-11-23T10:10:15.776Z,17.85
2018-11-23T10:12:44.449Z,15.93
2018-11-23T10:15:14.215Z,15.13
2018-11-23T10:17:42.718Z,16.37
2018-11-23T10:20:13.316Z,16.45
2018-11-23T10:22:41.905Z,18.42
2018-11-23T10:25:11.930Z,15.40
2018-11-23T10:27:40.878Z,14.90
2018-11-23T10:30:14.976Z,17.23
2018-11-23T10:32:43.628Z,13.18
2018-11-23T10:35:12.377Z,14.73
2018-11-23T10:37:41.792Z,15.35
2018-11-23T10:40:12.854Z,15.65
2018-11-23T10:42:41.914Z,13.95
2018-11-23T10:45:16.017Z,17.00
2018-11-23T10:47:44.795Z,16.95
2018-11-23T10:50:15.414Z,18.20
2018-11-23T10:52:45.194Z,14.40
2018-11-23T10:55:15.957Z,16.15
2018-11-23T10:57:44.792Z,17.95
2018-11-23T11:00:20.015Z,17.05
2018-11-23T11:02:52.913Z,18.35
2018-11-23T11:05:25.548Z,16.90
2018-11-23T11:07:54.220Z,18.15
2018-11-23T11:10:23.584Z,16.95
2018-11-23T11:12:52.065Z,15.53
2018-11-23T11:15:22.167Z,18.05
2018-11-23T11:17:51.387Z,16.10
2018-11-23T11:20:20.129Z,16.07
2018-11-23T11:22:49.589Z,16.52
2018-11-23T11:25:17.948Z,17.62
2018-11-23T11:27:46.378Z,14.43
2018-11-23T11:30:16.766Z,17.98
2018-11-23T11:32:45.831Z,16.07
2018-11-23T11:35:14.448Z,17.95
2018-11-23T11:37:43.389Z,20.35
2018-11-23T11:40:13.669Z,17.05
2018-11-23T11:42:42.731Z,16.30
2018-11-23T11:45:14.924Z,14.33
2018-11-23T11:47:43.930Z,16.23
2018-11-23T11:50:19.566Z,16.95
2018-11-23T11:52:49.419Z,19.40
2018-11-23T11:55:19.215Z,15.13
2018-11-23T11:57:59.208Z,15.05
2018-11-23T12:00:38.258Z,21.23
2018-11-23T12:03:09.251Z,17.62
2018-11-23T12:05:43.355Z,15.98
2018-11-23T12:08:12.820Z,16.05
2018-11-23T12:10:41.512Z,15.90
2018-11-23T12:13:09.894Z,16.57
2018-11-23T12:15:38.860Z,19.80
2018-11-23T12:18:10.356Z,17.55
2018-11-23T12:20:40.879Z,17.30
2018-11-23T12:23:09.808Z,25.05
2018-11-23T12:25:39.358Z,16.35
2018-11-23T12:28:12.048Z,19.70
2018-11-23T12:30:41.773Z,19.00
2018-11-23T12:33:10.790Z,18.82
2018-11-23T12:35:41.120Z,19.75
2018-11-23T12:38:10.955Z,16.55
2018-11-23T12:40:39.370Z,17.45
2018-11-23T12:43:07.948Z,16.70
2018-11-23T12:45:36.350Z,15.72
2018-11-23T12:48:04.808Z,15.32
2018-11-23T12:50:33.227Z,17.50
2018-11-23T12:53:06.312Z,14.63
2018-11-23T12:55:30.169Z,15.85
2018-11-23T12:58:00.169Z,17.10
2018-11-23T13:00:29.416Z,19.87
2018-11-23T13:02:59.407Z,16.65
2018-11-23T13:05:28.848Z,20.05
2018-11-23T13:07:58.403Z,15.32
2018-11-23T13:10:27.461Z,16.35
2018-11-23T13:12:56.733Z,17.52
2018-11-23T13:15:25.225Z,16.05
2018-11-23T13:17:54.689Z,19.25
2018-11-23T13:20:23.320Z,20.32
2018-11-23T13:22:58.474Z,15.30
2018-11-23T13:25:28.974Z,16.05
2018-11-23T13:27:57.536Z,16.35
2018-11-23T13:30:30.574Z,16.75
2018-11-23T13:32:59.166Z,17.40
2018-11-23T13:35:27.669Z,14.93
2018-11-23T13:37:56.169Z,15.32
2018-11-23T13:40:25.937Z,14.50
2018-11-23T13:42:56.335Z,17.20
2018-11-23T13:45:26.333Z,18.45
2018-11-23T13:47:55.994Z,17.35
2018-11-23T13:50:25.294Z,19.07
2018-11-23T13:52:55.614Z,18.23
2018-11-23T13:55:24.042Z,15.90
2018-11-23T13:57:52.561Z,17.37
2018-11-23T14:00:27.961Z,15.60
2018-11-23T14:02:56.339Z,17.70
2018-11-23T14:05:26.450Z,16.00
2018-11-23T14:07:56.587Z,17.77
2018-11-23T14:10:26.224Z,18.00
2018-11-23T14:12:57.270Z,17.45
2018-11-23T14:15:30.488Z,16.73
2018-11-23T14:17:59.905Z,19.42
2018-11-23T14:20:29.810Z,15.88
2018-11-23T14:23:08.773Z,17.95
2018-11-23T14:25:43.076Z,16.75
2018-11-23T14:28:11.975Z,19.95
2018-11-23T14:30:41.783Z,20.08
2018-11-23T14:33:10.283Z,16.35
2018-11-23T14:35:38.692Z,14.10
2018-11-23T14:38:07.109Z,18.67
2018-11-23T14:40:35.623Z,16.50
2018-11-23T14:43:04.336Z,14.28
2018-11-23T14:45:33.896Z,17.65
2018-11-23T14:48:07.415Z,15.70
2018-11-23T14:50:40.184Z,16.23
2018-11-23T14:53:08.719Z,16.85
2018-11-23T14:55:37.109Z,15.45
2018-11-23T14:58:05.929Z,18.92
2018-11-23T15:00:35.592Z,15.83
2018-11-23T15:03:05.135Z,16.23
2018-11-23T15:05:34.011Z,18.30
2018-11-23T15:08:02.534Z,17.70
2018-11-23T15:10:31.990Z,17.90
2018-11-23T15:13:01.413Z,16.77
2018-11-23T15:15:31.275Z,16.75
2018-11-23T15:18:00.373Z,18.10
2018-11-23T15:20:30.732Z,22.37
2018-11-23T15:23:04.470Z,22.05
2018-11-23T15:25:34.462Z,23.15
2018-11-23T15:28:02.890Z,22.55
2018-11-23T15:30:32.769Z,22.75
2018-11-23T15:33:01.758Z,20.43
2018-11-23T15:35:31.718Z,20.90
2018-11-23T15:38:00.301Z,23.92
2018-11-23T15:40:29.809Z,19.82
2018-11-23T15:43:02.791Z,21.70
2018-11-23T15:45:32.160Z,20.45
2018-11-23T15:48:01.174Z,24.90
2018-11-23T15:50:31.177Z,19.27
2018-11-23T15:52:59.625Z,26.68
2018-11-23T15:55:30.011Z,23.92
2018-11-23T15:58:00.264Z,19.23
2018-11-23T16:00:32.902Z,24.92
2018-11-23T16:03:01.818Z,21.42
2018-11-23T16:05:30.685Z,23.42
2018-11-23T16:08:02.380Z,21.60
2018-11-23T16:10:35.311Z,21.27
2018-11-23T16:13:11.193Z,18.57
2018-11-23T16:15:34.128Z,20.25
2018-11-23T16:18:03.061Z,24.50
2018-11-23T16:20:34.065Z,23.67
2018-11-23T16:23:03.896Z,19.05
2018-11-23T16:25:32.438Z,21.05
2018-11-23T16:28:02.484Z,20.70
2018-11-23T16:30:35.504Z,23.85
2018-11-23T16:33:08.007Z,18.42
2018-11-23T16:35:38.707Z,21.35
2018-11-23T16:38:09.628Z,22.32
2018-11-23T16:40:39.740Z,20.60
2018-11-23T16:43:09.602Z,18.60
2018-11-23T16:45:38.684Z,19.60
2018-11-23T16:48:08.169Z,19.70
2018-11-23T16:50:36.620Z,18.77
2018-11-23T16:53:05.940Z,23.10
2018-11-23T16:55:34.638Z,20.85
2018-11-23T16:58:04.525Z,17.57
2018-11-23T17:00:34.128Z,21.20
2018-11-23T17:03:04.194Z,21.23
2018-11-23T17:05:34.381Z,24.20
2018-11-23T17:08:02.861Z,20.20
2018-11-23T17:10:31.344Z,21.87
2018-11-23T17:12:59.931Z,20.50
2018-11-23T17:15:29.211Z,19.20
2018-11-23T17:17:57.723Z,20.23
2018-11-23T17:20:29.793Z,22.93
2018-11-23T17:22:59.300Z,21.45
2018-11-23T17:25:30.418Z,16.12
2018-11-23T17:28:01.544Z,20.15
2018-11-23T17:30:56.795Z,24.37
2018-11-23T17:36:26.010Z,17.20
2018-11-23T17:42:11.770Z,21.85
2018-11-23T17:47:37.433Z,23.77
2018-11-23T17:50:08.000Z,17.02
2018-11-23T17:52:56.454Z,19.80
2018-11-23T17:55:26.041Z,19.45
2018-11-23T17:58:11.551Z,20.17
2018-11-23T18:00:39.964Z,20.82
2018-11-23T18:03:09.069Z,20.30
2018-11-23T18:05:37.445Z,21.62
2018-11-23T18:08:15.499Z,20.75
2018-11-23T18:10:47.196Z,19.55
2018-11-23T18:13:18.237Z,19.30
2018-11-23T18:15:46.652Z,19.75
2018-11-23T18:18:15.868Z,21.75
2018-11-23T18:20:46.289Z,19.10
2018-11-23T18:23:14.921Z,24.82
2018-11-23T18:25:48.530Z,19.77
2018-11-23T18:28:40.752Z,19.12
2018-11-23T18:31:12.511Z,20.77
2018-11-23T18:33:40.942Z,20.68
2018-11-23T18:36:09.353Z,23.70
2018-11-23T18:38:40.420Z,16.75
2018-11-23T18:41:08.832Z,21.05
2018-11-23T18:43:37.278Z,20.30
2018-11-23T18:46:06.072Z,23.80
2018-11-23T18:48:34.855Z,19.70
2018-11-23T18:51:03.337Z,20.68
2018-11-23T18:53:31.733Z,19.95
2018-11-23T18:56:00.197Z,28.02
2018-11-23T18:58:28.676Z,25.57
2018-11-23T19:00:57.122Z,22.35
2018-11-23T19:03:25.942Z,22.45
2018-11-23T19:05:54.517Z,23.87
2018-11-23T19:08:22.960Z,33.08
2018-11-23T19:10:51.391Z,28.90
2018-11-23T19:13:19.842Z,35.08
2018-11-23T19:15:48.352Z,23.98
2018-11-23T19:18:16.829Z,31.93
2018-11-23T19:20:45.244Z,21.27
2018-11-23T19:23:13.639Z,23.30
2018-11-23T19:25:42.054Z,27.37
2018-11-23T19:28:10.504Z,30.90
2018-11-23T19:30:39.746Z,27.77
2018-11-23T19:33:11.681Z,26.77
2018-11-23T19:35:45.750Z,26.12
2018-11-23T19:38:14.491Z,27.22
2018-11-23T19:40:43.914Z,22.85
2018-11-23T19:43:12.472Z,25.68
2018-11-23T19:45:40.948Z,31.82
2018-11-23T19:48:09.452Z,22.32
2018-11-23T19:50:37.842Z,22.95
2018-11-23T19:53:06.271Z,28.50
2018-11-23T19:55:34.791Z,26.35
2018-11-23T19:58:03.258Z,26.55
2018-11-23T20:00:31.919Z,26.45
2018-11-23T20:03:00.337Z,24.25
2018-11-23T20:05:28.853Z,28.50
2018-11-23T20:07:57.532Z,27.27
2018-11-23T20:10:26.274Z,28.70
2018-11-23T20:12:56.999Z,26.33
2018-11-23T20:15:25.512Z,32.23
2018-11-23T20:17:54.539Z,40.35
2018-11-23T20:20:28.839Z,37.98
2018-11-23T20:22:58.265Z,37.55
2018-11-23T20:25:27.215Z,36.68
2018-11-23T20:27:55.694Z,38.48
2018-11-23T20:30:25.220Z,34.95
2018-11-23T20:32:53.764Z,55.65
2018-11-23T20:35:23.092Z,66.12
2018-11-23T20:37:51.562Z,41.53
2018-11-23T20:40:23.831Z,47.85
2018-11-23T20:42:52.306Z,38.05
2018-11-23T20:45:20.823Z,40.03
2018-11-23T20:47:49.348Z,41.90
2018-11-23T20:50:18.311Z,40.38
2018-11-23T20:52:46.849Z,39.03
2018-11-23T20:55:17.564Z,50.55
2018-11-23T20:57:47.097Z,42.38
2018-11-23T21:00:16.591Z,36.95
2018-11-23T21:02:45.665Z,40.92
2018-11-23T21:05:15.260Z,34.35
2018-11-23T21:07:46.862Z,38.20
2018-11-23T21:10:20.903Z,40.90
2018-11-23T21:12:49.199Z,33.92
2018-11-23T21:15:22.866Z,39.78
2018-11-23T21:17:51.416Z,42.20
2018-11-23T21:20:19.909Z,40.40
2018-11-23T21:22:48.380Z,37.55
2018-11-23T21:25:16.760Z,41.05
2018-11-23T21:27:45.246Z,33.63
2018-11-23T21:30:17.896Z,32.35
2018-11-23T21:32:46.470Z,31.77
2018-11-23T21:35:14.840Z,32.20
2018-11-23T21:37:43.275Z,29.32
2018-11-23T21:40:13.916Z,29.18
2018-11-23T21:42:42.353Z,29.05
2018-11-23T21:45:14.856Z,31.40
2018-11-23T21:47:43.233Z,29.60
2018-11-23T21:50:13.816Z,29.10
2018-11-23T21:52:42.232Z,27.62
2018-11-23T21:55:17.983Z,27.52
2018-11-23T21:57:46.463Z,29.12
2018-11-23T22:00:15.730Z,29.98
2018-11-23T22:02:45.437Z,27.90
2018-11-23T22:05:13.916Z,33.67
2018-11-23T22:07:42.400Z,26.20
2018-11-23T22:10:15.182Z,26.27
2018-11-23T22:12:43.701Z,28.65
2018-11-23T22:15:17.277Z,29.02
2018-11-23T22:17:46.612Z,28.17
2018-11-23T22:20:16.389Z,29.15
2018-11-23T22:22:44.852Z,28.17
2018-11-23T22:25:15.354Z,26.60
2018-11-23T22:27:44.106Z,32.05
2018-11-23T22:30:21.109Z,24.55
2018-11-23T22:32:49.568Z,25.57
2018-11-23T22:35:17.957Z,27.35
2018-11-23T22:37:46.433Z,28.25
2018-11-23T22:40:16.122Z,29.55
2018-11-23T22:42:45.686Z,27.58
2018-11-23T22:45:14.891Z,25.60
2018-11-23T22:47:43.309Z,27.27
2018-11-23T22:50:13.147Z,25.35
2018-11-23T22:52:41.714Z,29.20
2018-11-23T22:55:11.219Z,26.33
2018-11-23T22:57:39.595Z,27.50
2018-11-23T23:00:20.164Z,29.95
2018-11-23T23:02:48.849Z,28.77
2018-11-23T23:05:17.669Z,28.17
2018-11-23T23:07:46.129Z,31.97
2018-11-23T23:10:14.501Z,25.60
2018-11-23T23:12:42.947Z,26.57
2018-11-23T23:15:11.971Z,28.07
2018-11-23T23:17:40.854Z,26.80
2018-11-23T23:20:14.327Z,25.48
2018-11-23T23:22:42.757Z,25.12
2018-11-23T23:25:11.973Z,28.35
2018-11-23T23:27:40.413Z,28.35
2018-11-23T23:30:16.883Z,26.60
2018-11-23T23:32:45.927Z,29.48
2018-11-23T23:35:15.209Z,29.37
2018-11-23T23:37:43.560Z,27.00
2018-11-23T23:40:16.559Z,28.32
2018-11-23T23:42:45.388Z,25.88
2018-11-23T23:45:14.851Z,29.07
2018-11-23T23:47:43.289Z,28.20
2018-11-23T23:50:13.011Z,29.02
2018-11-23T23:52:41.394Z,23.90
2018-11-23T23:55:10.388Z,27.32
2018-11-23T23:57:39.830Z,28.42
